PWSweather.com
Personal Weather Stations
Station Observations
KNVELKO7
Elko, NV 89801

Elko, NV 89801

Lat: 40.963233, Lon: -115.592836

Elevation: 5230

Station Type: WS-2812

Latest ConditionsUpdated 4:13:13 AM PST Thursday, Jan 29, 2015
Currently Today's Max Today's Min Today's Average
Temperature 25.6°F-3.6°C 28.8°F-1.8°C 25.6°F-3.6°C 27.3°F-2.6°C
Dew Point 22.2°F-5.4°C 24.8°F-4.0°C 22.2°F-5.4°C 23.4°F-4.8°C
Winds 1.5 mph NNE2.4 kmh NNE 3.2 mph NNE5.1 kmh NNE - 0.7 mph 1.1 kmh
Wind Gusts 2.5 mph4.0 kmh 4.0 mph6.4 kmh - -
Humidity 87% 87% 83% 85%
Pressure 30.28 in1025.4 mb 30.31 in1026.4 mb 30.28 in1025.4 mb -
Hour Temp Dew Point Humidity Winds Wind Gusts Pressure Precip Precip Rate Daily Precip Total
04:13 AM 25.6°F-3.6°C 22.2°F-5.4°C 87% 1.5 mph NNE2.4 kmh NNE 2.5 mph4.0 kmh 30.28 in1025.4 mb 0.00 in0.0 mm 0.00 in/hr0.0 mm/hr 0.00 in0.0 mm
04:08 AM 25.7°F-3.5°C 22.4°F-5.3°C 87% 2.5 mph NNE4.0 kmh NNE 2.5 mph4.0 kmh 30.28 in1025.4 mb 0.00 in0.0 mm 0.00 in/hr0.0 mm/hr 0.00 in0.0 mm
04:03 AM 25.9°F-3.4°C 22.6°F-5.2°C 87% Calm Calm 0.4 mph0.6 kmh 30.29 in1025.7 mb 0.00 in0.0 mm 0.00 in/hr0.0 mm/hr 0.00 in0.0 mm
03:57 AM 26.3°F-3.2°C 23.0°F-5.0°C 87% 0.4 mph NNE0.6 kmh NNE 0.4 mph0.6 kmh 30.29 in1025.7 mb 0.00 in0.0 mm 0.00 in/hr0.0 mm/hr 0.00 in0.0 mm
03:52 AM 26.6°F-3.0°C 23.2°F-4.9°C 87% Calm Calm 1.6 mph2.6 kmh 30.29 in1025.7 mb 0.00 in0.0 mm 0.00 in/hr0.0 mm/hr 0.00 in0.0 mm
03:47 AM 26.5°F-3.1°C 23.0°F-5.0°C 87% Calm Calm 2.5 mph4.0 kmh 30.29 in1025.7 mb 0.00 in0.0 mm 0.00 in/hr0.0 mm/hr 0.00 in0.0 mm
03:42 AM 26.3°F-3.2°C 23.0°F-5.0°C 87% 2.5 mph NNE4.0 kmh NNE 2.5 mph4.0 kmh 30.29 in1025.7 mb 0.00 in0.0 mm 0.00 in/hr0.0 mm/hr 0.00 in0.0 mm
03:37 AM 26.3°F-3.2°C 23.0°F-5.0°C 87% Calm Calm 0.2 mph0.3 kmh 30.29 in1025.7 mb 0.00 in0.0 mm 0.00 in/hr0.0 mm/hr 0.00 in0.0 mm
03:32 AM 26.3°F-3.2°C 22.6°F-5.2°C 86% Calm Calm 0.2 mph0.3 kmh 30.29 in1025.7 mb 0.00 in0.0 mm 0.00 in/hr0.0 mm/hr 0.00 in0.0 mm
03:27 AM 26.5°F-3.1°C 22.8°F-5.1°C 86% Calm Calm 0.4 mph0.6 kmh 30.29 in1025.7 mb 0.00 in0.0 mm 0.00 in/hr0.0 mm/hr 0.00 in0.0 mm
03:22 AM 26.6°F-3.0°C 23.0°F-5.0°C 86% 0.3 mph NNE0.5 kmh NNE 0.4 mph0.6 kmh 30.30 in1026.1 mb 0.00 in0.0 mm 0.00 in/hr0.0 mm/hr 0.00 in0.0 mm
03:17 AM 26.8°F-2.9°C 23.1°F-4.9°C 86% 0.2 mph NNE0.3 kmh NNE 1.1 mph1.8 kmh 30.30 in1026.1 mb 0.00 in0.0 mm 0.00 in/hr0.0 mm/hr 0.00 in0.0 mm
03:12 AM 26.6°F-3.0°C 23.0°F-5.0°C 86% Calm Calm 1.1 mph1.8 kmh 30.29 in1025.7 mb 0.00 in0.0 mm 0.00 in/hr0.0 mm/hr 0.00 in0.0 mm
03:07 AM 26.5°F-3.1°C 22.8°F-5.1°C 86% 0.7 mph NNE1.1 kmh NNE 1.1 mph1.8 kmh 30.30 in1026.1 mb 0.00 in0.0 mm 0.00 in/hr0.0 mm/hr 0.00 in0.0 mm
03:03 AM 26.5°F-3.1°C 22.8°F-5.1°C 86% 0.2 mph NNE0.3 kmh NNE 1.3 mph2.1 kmh 30.30 in1026.1 mb 0.00 in0.0 mm 0.00 in/hr0.0 mm/hr 0.00 in0.0 mm
02:57 AM 26.3°F-3.2°C 22.6°F-5.2°C 86% Calm Calm 1.3 mph2.1 kmh 30.30 in1026.1 mb 0.00 in0.0 mm 0.00 in/hr0.0 mm/hr 0.00 in0.0 mm
02:52 AM 26.5°F-3.1°C 22.8°F-5.1°C 86% 0.2 mph NNE0.3 kmh NNE 1.8 mph2.9 kmh 30.30 in1026.1 mb 0.00 in0.0 mm 0.00 in/hr0.0 mm/hr 0.00 in0.0 mm
02:47 AM 26.8°F-2.9°C 23.1°F-4.9°C 86% 0.4 mph NNE0.6 kmh NNE 1.8 mph2.9 kmh 30.30 in1026.1 mb 0.00 in0.0 mm 0.00 in/hr0.0 mm/hr 0.00 in0.0 mm
02:42 AM 26.8°F-2.9°C 23.1°F-4.9°C 86% 1.3 mph NNE2.1 kmh NNE 1.8 mph2.9 kmh 30.30 in1026.1 mb 0.00 in0.0 mm 0.00 in/hr0.0 mm/hr 0.00 in0.0 mm
02:37 AM 26.8°F-2.9°C 22.9°F-5.1°C 85% 0.2 mph NNE0.3 kmh NNE 1.8 mph2.9 kmh 30.30 in1026.1 mb 0.00 in0.0 mm 0.00 in/hr0.0 mm/hr 0.00 in0.0 mm
02:32 AM 27.2°F-2.7°C 23.2°F-4.9°C 85% 0.4 mph NNE0.6 kmh NNE 0.4 mph0.6 kmh 30.30 in1026.1 mb 0.00 in0.0 mm 0.00 in/hr0.0 mm/hr 0.00 in0.0 mm
02:27 AM 27.5°F-2.5°C 23.6°F-4.7°C 85% Calm Calm 0.2 mph0.3 kmh 30.30 in1026.1 mb 0.00 in0.0 mm 0.00 in/hr0.0 mm/hr 0.00 in0.0 mm
02:22 AM 27.9°F-2.3°C 23.9°F-4.5°C 85% Calm Calm -- 30.30 in1026.1 mb 0.00 in0.0 mm 0.00 in/hr0.0 mm/hr 0.00 in0.0 mm
02:17 AM 28.1°F-2.2°C 24.1°F-4.4°C 85% Calm Calm 0.4 mph0.6 kmh 30.30 in1026.1 mb 0.00 in0.0 mm 0.00 in/hr0.0 mm/hr 0.00 in0.0 mm
02:12 AM 27.7°F-2.4°C 23.8°F-4.6°C 85% 0.3 mph NNE0.5 kmh NNE 1.8 mph2.9 kmh 30.30 in1026.1 mb 0.00 in0.0 mm 0.00 in/hr0.0 mm/hr 0.00 in0.0 mm
02:07 AM 27.7°F-2.4°C 23.8°F-4.6°C 85% 1.0 mph NNE1.6 kmh NNE 1.8 mph2.9 kmh 30.30 in1026.1 mb 0.00 in0.0 mm 0.00 in/hr0.0 mm/hr 0.00 in0.0 mm
02:02 AM 28.1°F-2.2°C 24.1°F-4.4°C 85% 1.5 mph NNE2.4 kmh NNE 1.6 mph2.6 kmh 30.30 in1026.1 mb 0.00 in0.0 mm 0.00 in/hr0.0 mm/hr 0.00 in0.0 mm
01:57 AM 28.1°F-2.2°C 24.1°F-4.4°C 85% 0.6 mph NNE1.0 kmh NNE 1.1 mph1.8 kmh 30.30 in1026.1 mb 0.00 in0.0 mm 0.00 in/hr0.0 mm/hr 0.00 in0.0 mm
01:52 AM 27.7°F-2.4°C 23.8°F-4.6°C 85% 1.1 mph NNE1.8 kmh NNE 1.1 mph1.8 kmh 30.30 in1026.1 mb 0.00 in0.0 mm 0.00 in/hr0.0 mm/hr 0.00 in0.0 mm
01:47 AM 27.5°F-2.5°C 23.6°F-4.7°C 85% Calm Calm 1.8 mph2.9 kmh 30.30 in1026.1 mb 0.00 in0.0 mm 0.00 in/hr0.0 mm/hr 0.00 in0.0 mm
01:42 AM 27.7°F-2.4°C 23.8°F-4.6°C 85% 1.3 mph NNE2.1 kmh NNE 1.8 mph2.9 kmh 30.31 in1026.4 mb 0.00 in0.0 mm 0.00 in/hr0.0 mm/hr 0.00 in0.0 mm
01:37 AM 28.1°F-2.2°C 24.1°F-4.4°C 85% Calm Calm 3.4 mph5.5 kmh 30.30 in1026.1 mb 0.00 in0.0 mm 0.00 in/hr0.0 mm/hr 0.00 in0.0 mm
01:32 AM 27.9°F-2.3°C 23.9°F-4.5°C 85% 2.6 mph NNE4.2 kmh NNE 3.6 mph5.8 kmh 30.30 in1026.1 mb 0.00 in0.0 mm 0.00 in/hr0.0 mm/hr 0.00 in0.0 mm
01:27 AM 27.4°F-2.6°C 23.4°F-4.8°C 85% 3.2 mph NNE5.1 kmh NNE 3.6 mph5.8 kmh 30.30 in1026.1 mb 0.00 in0.0 mm 0.00 in/hr0.0 mm/hr 0.00 in0.0 mm
01:22 AM 27.0°F-2.8°C 23.0°F-5.0°C 85% 0.2 mph NNE0.3 kmh NNE 0.2 mph0.3 kmh 30.30 in1026.1 mb 0.00 in0.0 mm 0.00 in/hr0.0 mm/hr 0.00 in0.0 mm
01:17 AM 27.0°F-2.8°C 22.8°F-5.1°C 84% Calm Calm -- 30.30 in1026.1 mb 0.00 in0.0 mm 0.00 in/hr0.0 mm/hr 0.00 in0.0 mm
01:12 AM 27.0°F-2.8°C 22.8°F-5.1°C 84% Calm Calm -- 30.30 in1026.1 mb 0.00 in0.0 mm 0.00 in/hr0.0 mm/hr 0.00 in0.0 mm
01:07 AM 27.0°F-2.8°C 22.8°F-5.1°C 84% Calm Calm 0.4 mph0.6 kmh 30.30 in1026.1 mb 0.00 in0.0 mm 0.00 in/hr0.0 mm/hr 0.00 in0.0 mm
01:02 AM 27.4°F-2.6°C 23.1°F-4.9°C 84% Calm Calm 2.5 mph4.0 kmh 30.30 in1026.1 mb 0.00 in0.0 mm 0.00 in/hr0.0 mm/hr 0.00 in0.0 mm
12:56 AM 27.9°F-2.3°C 23.7°F-4.6°C 84% 0.2 mph NNE0.3 kmh NNE 3.4 mph5.5 kmh 30.31 in1026.4 mb 0.00 in0.0 mm 0.00 in/hr0.0 mm/hr 0.00 in0.0 mm
12:51 AM 28.4°F-2.0°C 24.5°F-4.2°C 85% 1.3 mph NNE2.1 kmh NNE 4.0 mph6.4 kmh 30.31 in1026.4 mb 0.00 in0.0 mm 0.00 in/hr0.0 mm/hr 0.00 in0.0 mm
12:47 AM 28.4°F-2.0°C 24.5°F-4.2°C 85% 1.9 mph NNE3.1 kmh NNE 4.0 mph6.4 kmh 30.31 in1026.4 mb 0.00 in0.0 mm 0.00 in/hr0.0 mm/hr 0.00 in0.0 mm
12:42 AM 28.8°F-1.8°C 24.8°F-4.0°C 85% 2.5 mph NNE4.0 kmh NNE 4.0 mph6.4 kmh 30.31 in1026.4 mb 0.00 in0.0 mm 0.00 in/hr0.0 mm/hr 0.00 in0.0 mm
12:37 AM 28.8°F-1.8°C 24.8°F-4.0°C 85% 0.2 mph NNE0.3 kmh NNE 1.1 mph1.8 kmh 30.31 in1026.4 mb 0.00 in0.0 mm 0.00 in/hr0.0 mm/hr 0.00 in0.0 mm
12:32 AM 28.4°F-2.0°C 24.5°F-4.2°C 85% 1.1 mph NNE1.8 kmh NNE 2.2 mph3.5 kmh 30.31 in1026.4 mb 0.00 in0.0 mm 0.00 in/hr0.0 mm/hr 0.00 in0.0 mm
12:27 AM 28.3°F-2.1°C 24.0°F-4.4°C 84% 0.4 mph NNE0.6 kmh NNE 3.1 mph5.0 kmh 30.31 in1026.4 mb 0.00 in0.0 mm 0.00 in/hr0.0 mm/hr 0.00 in0.0 mm
12:22 AM 28.1°F-2.2°C 23.6°F-4.7°C 83% 2.5 mph NNE4.0 kmh NNE 3.1 mph5.0 kmh 30.31 in1026.4 mb 0.00 in0.0 mm 0.00 in/hr0.0 mm/hr 0.00 in0.0 mm
12:17 AM 28.1°F-2.2°C 23.9°F-4.5°C 84% Calm Calm -- 30.31 in1026.4 mb 0.00 in0.0 mm 0.00 in/hr0.0 mm/hr 0.00 in0.0 mm
12:12 AM 28.1°F-2.2°C 23.6°F-4.7°C 83% Calm Calm 0.2 mph0.3 kmh 30.31 in1026.4 mb 0.00 in0.0 mm 0.00 in/hr0.0 mm/hr 0.00 in0.0 mm
12:07 AM 28.4°F-2.0°C 24.2°F-4.3°C 84% Calm Calm 0.7 mph1.1 kmh 30.31 in1026.4 mb 0.00 in0.0 mm 0.00 in/hr0.0 mm/hr 0.00 in0.0 mm
12:02 AM 28.8°F-1.8°C 24.6°F-4.1°C 84% 0.6 mph NNE1.0 kmh NNE 0.7 mph1.1 kmh 30.31 in1026.4 mb 0.00 in0.0 mm 0.00 in/hr0.0 mm/hr 0.00 in0.0 mm